Greenisland, United Kingdom
Current Conditions -  °F | °C
As of 5:50 PM on Monday 24 Nov 2014 (Local Time) from EGAC Reporting Station
Drizzle Drizzle  
Wind Chill:   Ceiling: Unl
Heat Index:   Visibility: 6mi
Dew Point:   Wind: 7mph
Humidity: 81%   Direction: 200°SSW
Pressure: 30.24"   Gusts: NA
Location:  54.7°N, 5.87°W
Report Text: EGAC 241750Z 20006KT 9999 -DZ FEW014 SCT030 07/04 Q1024
Loading
Personal Weather Stations






























Interactive Weather Map New forecast layout! Learn more

10-Day Weather Forecast

Advertisements
Track Severe Weather on mobile